METAR AND TAF INFORMATION
METAR FOR MMSD
ADDS - METARS form results

(1924 UTC 26 April 2018)
Data provider http://aviationweather.gov/adds/metars/
 
METAR text: MMSD 261840Z 14014KT 12SM SKC 34/01 A2988
Conditions at: MMSD (SAN JOSE DEL CAB, MX) observed 1840 UTC 26 April 2018
Temperature: 34.0°C (93°F)
Dewpoint: 1.0°C (34°F) [RH = 12%]
Pressure (altimeter): 29.88 inches Hg (1011.9 mb)
Winds: from the SE (140 degrees) at 16 MPH (14 knots; 7.3 m/s)
Visibility: 12 miles (19 km)
Ceiling: at least 12,000 feet AGL
Clouds: clear skies
Weather: no significant weather observed at this time

Forecast for: MMSD (SAN JOSE DEL CAB, MX)
Text: TAF MMSD 261644Z 2618/2718 13010KT P6SM SKC
Forecast period: 1800 to 2000 UTC 26 April 2018
Forecast type: FROM: standard forecast or significant change
Winds: from the SE (130 degrees) at 12 MPH (10 knots; 5.2 m/s)
Visibility: 6 or more miles (10+ km)
Clouds: clear skies
Weather: no significant weather forecast for this period
Forecast for: MMSD (SAN JOSE DEL CAB, MX)
Text: TAF MMSD 261644Z 2618/2718 13010KT P6SM SKC
Forecast period: 1800 to 2000 UTC 26 April 2018
Forecast type: FROM: standard forecast or significant change
Winds: from the SE (130 degrees) at 12 MPH (10 knots; 5.2 m/s)
Visibility: 6 or more miles (10+ km)
Clouds: clear skies
Weather: no significant weather forecast for this period
Forecast for: MMSD (SAN JOSE DEL CAB, MX)
Text: TAF MMSD 261644Z 2618/2718 13010KT P6SM SKC
Forecast period: 2000 UTC 26 April 2018 to 0200 UTC 27 April 2018
Forecast type: BECOMING: Conditions expected to become as follows by 2100 UTC 26 April 2018
Winds: from the SE (130 degrees) at 17 MPH (15 knots; 7.8 m/s)
Visibility: 6 or more miles (10+ km)
Clouds: scattered clouds at 25000 feet AGL
Weather: no significant weather forecast for this period
Forecast for: MMSD (SAN JOSE DEL CAB, MX)
Text: TAF MMSD 261644Z 2618/2718 13010KT P6SM SKC
Forecast period: 2000 UTC 26 April 2018 to 0200 UTC 27 April 2018
Forecast type: BECOMING: Conditions expected to become as follows by 2100 UTC 26 April 2018
Winds: from the SE (130 degrees) at 17 MPH (15 knots; 7.8 m/s)
Visibility: 6 or more miles (10+ km)
Clouds: scattered clouds at 25000 feet AGL
Weather: no significant weather forecast for this period
Forecast for: MMSD (SAN JOSE DEL CAB, MX)
Text: TAF MMSD 261644Z 2618/2718 13010KT P6SM SKC
Forecast period: 0200 to 0500 UTC 27 April 2018
Forecast type: FROM: standard forecast or significant change
Winds: from the NW (320 degrees) at 7 MPH (6 knots; 3.1 m/s)
Visibility: 6 or more miles (10+ km)
Ceiling: 25000 feet AGL
Clouds: broken clouds at 25000 feet AGL
Weather: no significant weather forecast for this period
Forecast for: MMSD (SAN JOSE DEL CAB, MX)
Text: TAF MMSD 261644Z 2618/2718 13010KT P6SM SKC
Forecast period: 0200 to 0500 UTC 27 April 2018
Forecast type: FROM: standard forecast or significant change
Winds: from the NW (320 degrees) at 7 MPH (6 knots; 3.1 m/s)
Visibility: 6 or more miles (10+ km)
Ceiling: 25000 feet AGL
Clouds: broken clouds at 25000 feet AGL
Weather: no significant weather forecast for this period
Forecast for: MMSD (SAN JOSE DEL CAB, MX)
Text: TAF MMSD 261644Z 2618/2718 13010KT P6SM SKC
Forecast period: 0500 to 1800 UTC 27 April 2018
Forecast type: BECOMING: Conditions expected to become as follows by 0600 UTC 27 April 2018
Winds: calm
Visibility: 6 or more miles (10+ km)
Ceiling: 25000 feet AGL
Clouds: broken clouds at 25000 feet AGL
Weather: no significant weather forecast for this period
Forecast for: MMSD (SAN JOSE DEL CAB, MX)
Text: TAF MMSD 261644Z 2618/2718 13010KT P6SM SKC
Forecast period: 0500 to 1800 UTC 27 April 2018
Forecast type: BECOMING: Conditions expected to become as follows by 0600 UTC 27 April 2018
Winds: calm
Visibility: 6 or more miles (10+ km)
Ceiling: 25000 feet AGL
Clouds: broken clouds at 25000 feet AGL
Weather: no significant weather forecast for this period
Forecast for: MMSD (SAN JOSE DEL CAB, MX)
Text: TAF MMSD 261644Z 2618/2718 13010KT P6SM SKC
Forecast period: 1800 to 1800 UTC 27 April 2018
Forecast type: FROM: standard forecast or significant change
Winds: from the SE (130 degrees) at 12 MPH (10 knots; 5.2 m/s)
Visibility: 6 or more miles (10+ km)
Ceiling: 25000 feet AGL
Clouds: broken clouds at 25000 feet AGL
Weather: no significant weather forecast for this period
Forecast for: MMSD (SAN JOSE DEL CAB, MX)
Text: TAF MMSD 261644Z 2618/2718 13010KT P6SM SKC
Forecast period: 1800 to 1800 UTC 27 April 2018
Forecast type: FROM: standard forecast or significant change
Winds: from the SE (130 degrees) at 12 MPH (10 knots; 5.2 m/s)
Visibility: 6 or more miles (10+ km)
Ceiling: 25000 feet AGL
Clouds: broken clouds at 25000 feet AGL
Weather: no significant weather forecast for this period

 AIRPORT MAP

 RUNWAY INFORMATION
Runway 16 Runway length 9843 ft Runway width 148 ft
Runway elevation 374 ft Runway displaced threshold 0 ft Runway heading 174
Runway 34 Runway length 9843 ft Runway width 148 ft
Runway elevation 348 ft Runway displaced threshold 0 ft Runway heading 354

 AIRPORT FREQUENCIES
Type APP Name SAN JOSE A Frequency 120.9 MHZ
Type ATIS Name ATIS Frequency 127.6 MHZ
Type TWR Name SAN JOSE T Frequency 118.9 MHZ

 AIRPORT NEAR NAVIGATION AIDS
Type VOR-DME Name Cabos Frequency 114000 KHZ



v2.6.1